ICAO code: LHPR | IATA code: QGY | AFTN: LHPRZPZX | english | deutsch
Időjárás: 2018-11-18 23:20 (UTC) | Hőmérséklet: 1.7 °C | QNH: 1017.3 hPa | Szél: 2.1 m/s | Részletek
Live ATC LHPR
Webkameránk élőképe

Győr-Pér Repülőtér időjárás adatok

Metar:
METAR LHPR 182245Z AUTO VRB02KT 8000 FEW029 02/M00 Q1017 RMK BL


Taf:
TAF LHPR 182000Z NIL


Jelenidő:
Párásság
Időbélyeg: 2018-11-18 23:20:00 UTC
Hőmérséklet:
1.7 °C
 
Harmatpont:
-0.2 °C
 
Rel. páratartalom:
87%
 
QNH:
1017.3 hPa
 
Szélsebesség:
2.1 m/s
Max:
2.7 m/s
Szélirány:
290°
 
Csapadék (1 óra):
0.0 mm
 
Látótávolság:
6552 m
 
RVR:
>1500 m RWY30
 
1. felhőréteg mennyisége:
1 octa
 
1. felhőréteg alapja:
1160 m


Az adatokat szolgáltatja
az Országos Meteorológiai Szolgálat
Győr-Pér Repülőtér | H 9099 Pér, Repülőtér | Tel: +36/96/559-200 | Fax: +36/96/559-202

ICAO code: LHPR | IATA code: QGY | AFTN: LHPRZPZX


weboldal tervezés: IRQ